Time;durP1;ratioP1;P1;durP2;ratioP2;P2;SDS_P1;SDS_P2;PMS_P1;PMS_P2;Temp;Humidity;BMP_temperature;BMP_pressure;BME280_temperature;BME280_humidity;BME280_pressure;Samples;Min_cycle;Max_cycle;Signal;HPM_P1;HPM_P2
2022/08/29 00:00:43;;;;;;;2.15;1.35;;;19.50;83.10;;;;;;10526811;28;20032;-62
2022/08/29 00:05:44;;;;;;;2.72;1.50;;;19.50;83.20;;;;;;10520734;28;20032;-62
2022/08/29 00:10:45;;;;;;;4.70;1.60;;;19.50;83.10;;;;;;10519082;28;20275;-62
2022/08/29 00:15:46;;;;;;;4.45;1.70;;;19.50;83.10;;;;;;10520753;28;20036;-62
2022/08/29 00:20:47;;;;;;;3.30;1.83;;;19.50;83.10;;;;;;10529795;28;20086;-62
2022/08/29 00:25:48;;;;;;;3.20;1.42;;;19.50;83.10;;;;;;10504073;28;20107;-61
2022/08/29 00:30:49;;;;;;;2.55;1.40;;;19.50;83.20;;;;;;10523453;28;20524;-61
2022/08/29 00:35:50;;;;;;;2.55;1.55;;;19.50;83.20;;;;;;10519034;28;20139;-62
2022/08/29 00:40:54;;;;;;;4.88;1.50;;;19.40;83.10;;;;;;10529998;28;20038;-63
2022/08/29 00:46:04;;;;;;;3.85;1.90;;;19.40;83.10;;;;;;10524728;28;20029;-61
2022/08/29 00:51:11;;;;;;;4.13;1.58;;;19.40;83.10;;;;;;10523934;28;20119;-62
2022/08/29 00:56:15;;;;;;;2.93;1.67;;;19.40;83.10;;;;;;10527645;28;20036;-62
2022/08/29 01:01:17;;;;;;;3.90;1.83;;;19.40;83.70;;;;;;10518868;28;20332;-62
2022/08/29 01:06:18;;;;;;;4.28;1.58;;;19.40;83.10;;;;;;10523911;28;20468;-62
2022/08/29 01:16:40;;;;;;;5.18;1.80;;;19.40;83.10;;;;;;10524183;28;20044;-61
2022/08/29 01:22:06;;;;;;;2.97;1.75;;;19.40;83.10;;;;;;10524829;28;20037;-61
2022/08/29 01:27:09;;;;;;;3.40;1.83;;;19.40;83.10;;;;;;10526847;28;20478;-61
2022/08/29 01:32:11;;;;;;;3.50;1.67;;;19.40;83.10;;;;;;10531955;28;20039;-61
2022/08/29 01:37:15;;;;;;;2.88;1.80;;;19.30;83.10;;;;;;10530028;28;20380;-61
2022/08/29 01:42:19;;;;;;;2.60;1.65;;;19.30;83.10;;;;;;10527754;28;20043;-61
2022/08/29 01:47:22;;;;;;;5.07;2.10;;;19.20;83.00;;;;;;10530318;28;20027;-62
2022/08/29 01:52:23;;;;;;;3.80;1.70;;;19.30;83.10;;;;;;10527339;28;20432;-61
2022/08/29 01:57:24;;;;;;;3.42;1.70;;;19.30;83.10;;;;;;10530652;28;20043;-61
2022/08/29 02:02:27;;;;;;;3.78;1.80;;;19.30;83.70;;;;;;10533078;28;20016;-62
2022/08/29 02:07:28;;;;;;;2.90;1.80;;;19.30;83.10;;;;;;10536115;28;20023;-61
2022/08/29 02:12:30;;;;;;;3.75;1.80;;;19.30;83.10;;;;;;10537320;28;20051;-62
2022/08/29 02:17:31;;;;;;;4.68;2.03;;;19.30;83.10;;;;;;10531993;28;20028;-61
2022/08/29 02:22:31;;;;;;;3.97;1.95;;;19.30;83.10;;;;;;10528991;28;20023;-61
2022/08/29 02:27:32;;;;;;;3.92;1.75;;;19.30;83.10;;;;;;10526547;28;20115;-61
2022/08/29 02:32:33;;;;;;;3.10;2.08;;;19.30;83.30;;;;;;10528690;28;20048;-62
2022/08/29 02:37:33;;;;;;;4.22;1.90;;;19.30;83.10;;;;;;10510088;28;20027;-62
2022/08/29 02:42:34;;;;;;;4.45;1.90;;;19.30;83.10;;;;;;10495526;28;20209;-62
2022/08/29 02:47:35;;;;;;;4.05;1.80;;;19.30;83.10;;;;;;10531073;28;20034;-62
2022/08/29 02:52:38;;;;;;;3.03;1.60;;;19.30;83.10;;;;;;10530742;28;20051;-61
2022/08/29 02:57:40;;;;;;;4.43;1.88;;;19.20;83.10;;;;;;10524117;28;20490;-62
2022/08/29 03:02:43;;;;;;;5.40;2.03;;;19.20;83.10;;;;;;10526870;28;20043;-61
2022/08/29 03:07:44;;;;;;;2.38;1.70;;;19.20;83.10;;;;;;10523096;28;20115;-62
2022/08/29 03:12:46;;;;;;;3.92;2.00;;;19.20;83.10;;;;;;10530063;28;20109;-61
2022/08/29 03:17:47;;;;;;;2.70;1.88;;;19.20;83.10;;;;;;10524739;28;20056;-62
2022/08/29 03:22:48;;;;;;;3.60;2.13;;;19.20;83.10;;;;;;10507957;28;20476;-62
2022/08/29 03:27:49;;;;;;;4.50;2.00;;;19.20;83.10;;;;;;10512943;28;20384;-62
2022/08/29 03:32:50;;;;;;;4.55;2.45;;;19.20;83.20;;;;;;10531000;28;20229;-62
2022/08/29 03:37:54;;;;;;;3.65;1.80;;;19.20;83.10;;;;;;10524306;28;20518;-62
2022/08/29 03:42:55;;;;;;;5.45;2.20;;;19.20;83.20;;;;;;10525430;28;20078;-62
2022/08/29 03:47:56;;;;;;;3.92;1.73;;;19.20;83.20;;;;;;10522717;28;20020;-62
2022/08/29 03:52:56;;;;;;;3.28;1.67;;;19.20;83.30;;;;;;10525010;28;20094;-63
2022/08/29 03:57:57;;;;;;;5.88;1.83;;;19.20;83.30;;;;;;10524918;28;20024;-61
2022/08/29 04:02:58;;;;;;;4.18;2.05;;;19.20;83.90;;;;;;10523425;28;20028;-61
2022/08/29 04:07:59;;;;;;;4.65;2.08;;;19.10;83.30;;;;;;10524055;28;20035;-61
2022/08/29 04:13:00;;;;;;;4.43;1.90;;;19.10;83.50;;;;;;10522045;28;20044;-62
2022/08/29 04:18:04;;;;;;;4.78;2.08;;;19.10;83.40;;;;;;10521258;28;20035;-62
2022/08/29 04:23:05;;;;;;;4.20;2.47;;;19.10;83.40;;;;;;10511078;28;20028;-61
2022/08/29 04:28:08;;;;;;;3.22;1.80;;;19.10;83.40;;;;;;10509206;28;20282;-62
2022/08/29 04:33:09;;;;;;;6.28;2.28;;;19.10;83.40;;;;;;10515176;28;20024;-61
2022/08/29 04:38:10;;;;;;;3.55;2.05;;;19.10;83.50;;;;;;10512843;28;20024;-61
2022/08/29 04:43:11;;;;;;;5.30;2.17;;;19.00;83.50;;;;;;10509318;28;20058;-61
2022/08/29 04:48:11;;;;;;;4.70;2.28;;;19.00;83.50;;;;;;10514371;28;20112;-61
2022/08/29 04:53:12;;;;;;;4.63;2.17;;;19.00;83.50;;;;;;10526969;28;20033;-62
2022/08/29 04:58:13;;;;;;;3.92;2.03;;;19.00;83.60;;;;;;10532112;28;20092;-61
2022/08/29 05:03:13;;;;;;;4.25;2.58;;;19.00;84.20;;;;;;10439394;28;20028;-61
2022/08/29 05:08:14;;;;;;;5.28;1.77;;;19.00;83.60;;;;;;10430923;28;20257;-62
2022/08/29 05:13:15;;;;;;;4.50;1.80;;;19.00;83.60;;;;;;10434568;28;20052;-61
2022/08/29 05:18:17;;;;;;;5.93;2.03;;;19.00;83.70;;;;;;10431002;28;20286;-61
2022/08/29 05:23:18;;;;;;;5.43;2.05;;;19.00;83.70;;;;;;10421216;28;20127;-61
2022/08/29 05:28:19;;;;;;;4.32;2.15;;;19.00;83.70;;;;;;10442171;28;20464;-61
2022/08/29 05:33:20;;;;;;;4.97;1.98;;;19.00;83.70;;;;;;10432412;28;20332;-62
2022/08/29 05:38:21;;;;;;;3.97;2.28;;;19.00;83.70;;;;;;10408739;28;20021;-61
2022/08/29 05:43:22;;;;;;;3.70;1.73;;;19.00;83.70;;;;;;10441911;28;20036;-62
2022/08/29 05:48:22;;;;;;;4.85;1.70;;;19.00;83.70;;;;;;10429786;28;20024;-62
2022/08/29 05:53:23;;;;;;;3.05;1.80;;;19.00;83.70;;;;;;10436341;28;20103;-62
2022/08/29 05:58:25;;;;;;;8.15;2.03;;;19.00;83.70;;;;;;10421031;28;20039;-62
2022/08/29 06:03:26;;;;;;;6.13;1.85;;;19.10;83.80;;;;;;10437259;28;20028;-63
2022/08/29 06:08:26;;;;;;;5.90;2.88;;;19.10;83.80;;;;;;10438206;28;20138;-63
2022/08/29 06:13:27;;;;;;;5.57;1.90;;;19.10;83.80;;;;;;10435387;28;20091;-64
2022/08/29 06:18:28;;;;;;;52.58;5.18;;;19.10;83.80;;;;;;10431456;28;20048;-63
2022/08/29 06:23:29;;;;;;;3.35;1.75;;;19.10;83.90;;;;;;10429131;28;20028;-63
2022/08/29 06:28:31;;;;;;;4.28;2.00;;;19.10;83.90;;;;;;10447417;28;20359;-63
2022/08/29 06:33:32;;;;;;;4.53;1.85;;;19.10;84.00;;;;;;10445276;28;20277;-63
2022/08/29 06:38:34;;;;;;;5.65;2.47;;;19.10;83.90;;;;;;10444196;28;20032;-63
2022/08/29 06:43:35;;;;;;;4.43;2.00;;;19.10;84.00;;;;;;10447593;28;20213;-62
2022/08/29 06:48:36;;;;;;;4.35;1.77;;;19.20;84.00;;;;;;10449326;28;20027;-63
2022/08/29 06:53:36;;;;;;;4.43;1.92;;;19.20;84.00;;;;;;10440519;28;20040;-63
2022/08/29 06:58:37;;;;;;;2.67;1.45;;;19.20;84.00;;;;;;10441953;28;20257;-62
2022/08/29 07:03:40;;;;;;;4.43;1.63;;;19.20;84.10;;;;;;10444237;28;20032;-64
2022/08/29 07:08:40;;;;;;;3.22;1.85;;;18.90;83.90;;;;;;10438675;28;20378;-63
2022/08/29 07:13:41;;;;;;;4.32;2.00;;;19.20;84.10;;;;;;10440951;28;20032;-63
2022/08/29 07:18:43;;;;;;;3.85;1.98;;;19.20;84.10;;;;;;10440203;28;20450;-63
2022/08/29 07:23:43;;;;;;;5.05;1.80;;;19.20;84.10;;;;;;10414496;28;20035;-63
2022/08/29 07:28:49;;;;;;;3.10;1.40;;;19.30;84.10;;;;;;10429417;28;20655;-62
2022/08/29 07:33:49;;;;;;;2.88;1.77;;;19.30;84.00;;;;;;10430126;28;20208;-62
2022/08/29 07:38:50;;;;;;;2.25;1.50;;;19.40;83.90;;;;;;10433881;28;20168;-62
2022/08/29 07:43:51;;;;;;;6.28;1.73;;;19.40;84.00;;;;;;10442251;28;20499;-62
2022/08/29 07:48:52;;;;;;;5.90;2.22;;;19.40;83.90;;;;;;10430172;28;20036;-62
2022/08/29 07:53:54;;;;;;;3.45;1.50;;;19.50;83.90;;;;;;10432757;28;20293;-62
2022/08/29 07:58:56;;;;;;;2.85;1.45;;;19.50;83.80;;;;;;10427615;28;20028;-62
2022/08/29 08:03:57;;;;;;;4.20;1.50;;;19.60;83.80;;;;;;10435838;28;20042;-62
2022/08/29 08:08:58;;;;;;;3.58;1.70;;;19.60;83.70;;;;;;10432138;28;20446;-62
2022/08/29 08:13:59;;;;;;;3.05;1.88;;;19.60;84.30;;;;;;10411661;28;20037;-62
2022/08/29 08:19:00;;;;;;;4.10;1.70;;;19.60;83.50;;;;;;10437395;28;20370;-62
2022/08/29 08:24:02;;;;;;;2.40;1.40;;;19.70;83.50;;;;;;10440293;28;20024;-62
2022/08/29 08:29:03;;;;;;;3.22;1.60;;;19.70;83.50;;;;;;10444436;28;20027;-62
2022/08/29 08:34:04;;;;;;;1.75;1.00;;;19.70;83.60;;;;;;10436877;28;20733;-62
2022/08/29 08:39:05;;;;;;;3.33;1.42;;;19.70;83.60;;;;;;10441590;28;20058;-62
2022/08/29 08:44:14;;;;;;;3.65;1.23;;;19.70;83.60;;;;;;10436362;28;20032;-61
2022/08/29 08:50:00;;;;;;;2.05;1.38;;;19.70;83.60;;;;;;10439766;28;20029;-62
2022/08/29 08:55:09;;;;;;;3.08;1.30;;;19.80;83.80;;;;;;10361024;28;20663;-62
2022/08/29 09:00:12;;;;;;;3.40;1.50;;;19.80;83.70;;;;;;10437024;28;20024;-62
2022/08/29 09:05:18;;;;;;;2.42;1.27;;;19.80;83.60;;;;;;10440594;28;20089;-62
2022/08/29 09:10:27;;;;;;;1.42;0.93;;;19.80;83.60;;;;;;10434466;28;20471;-62
2022/08/29 09:15:50;;;;;;;3.33;1.55;;;19.90;83.60;;;;;;10432146;28;20048;-62
2022/08/29 09:20:52;;;;;;;3.28;1.35;;;19.90;83.60;;;;;;10442151;28;20042;-62
2022/08/29 09:25:53;;;;;;;2.67;1.25;;;20.00;83.50;;;;;;10450193;28;20038;-62
2022/08/29 09:31:22;;;;;;;3.95;1.30;;;20.00;83.40;;;;;;10449615;28;20024;-62
2022/08/29 09:36:41;;;;;;;1.88;1.17;;;20.00;83.50;;;;;;10434532;28;20150;-62
2022/08/29 09:41:43;;;;;;;1.73;1.00;;;20.10;83.50;;;;;;10453898;28;20036;-62
2022/08/29 09:46:44;;;;;;;1.80;1.13;;;20.20;83.30;;;;;;10455338;28;20342;-62
2022/08/29 09:51:47;;;;;;;3.65;1.30;;;20.20;83.20;;;;;;10452311;28;20587;-62
2022/08/29 09:57:17;;;;;;;2.30;1.25;;;20.20;83.10;;;;;;10449695;28;20044;-62
2022/08/29 10:02:28;;;;;;;2.13;1.25;;;20.30;83.40;;;;;;10438486;28;20596;-62
2022/08/29 10:07:34;;;;;;;2.53;1.17;;;20.40;83.20;;;;;;10456724;28;20131;-62
2022/08/29 10:12:46;;;;;;;3.42;1.20;;;20.40;83.10;;;;;;10450221;28;20044;-62
2022/08/29 10:23:45;;;;;;;3.63;1.45;;;20.50;83.00;;;;;;10437732;28;20145;-62
2022/08/29 10:29:02;;;;;;;2.53;1.40;;;20.60;83.00;;;;;;10436181;28;20036;-62
2022/08/29 10:34:39;;;;;;;2.70;1.27;;;20.60;82.90;;;;;;10425871;28;20097;-62
2022/08/29 10:40:05;;;;;;;2.42;1.30;;;20.60;83.00;;;;;;10420241;28;20359;-62
2022/08/29 10:45:24;;;;;;;3.72;1.02;;;20.70;83.00;;;;;;10430930;28;20090;-62
2022/08/29 10:50:35;;;;;;;1.90;1.50;;;20.70;82.90;;;;;;10437961;28;20020;-62
2022/08/29 10:55:41;;;;;;;3.45;1.35;;;20.70;82.90;;;;;;10427070;28;20032;-62
2022/08/29 11:00:51;;;;;;;2.47;1.35;;;20.80;83.00;;;;;;10441473;28;20036;-62
2022/08/29 11:06:04;;;;;;;2.38;1.40;;;20.80;83.10;;;;;;10435373;28;20017;-62
2022/08/29 11:11:05;;;;;;;1.98;1.17;;;20.80;83.40;;;;;;10436646;28;20331;-63
2022/08/29 11:16:17;;;;;;;3.35;1.27;;;20.90;83.20;;;;;;10433759;28;20649;-62
2022/08/29 11:21:27;;;;;;;1.70;1.08;;;20.90;83.10;;;;;;10445968;28;20489;-62
2022/08/29 11:27:07;;;;;;;2.85;1.23;;;21.00;83.00;;;;;;10450706;28;20034;-62
2022/08/29 11:32:39;;;;;;;2.45;1.05;;;21.10;83.80;;;;;;10448477;28;20331;-62
2022/08/29 11:38:08;;;;;;;3.15;1.50;;;21.20;83.30;;;;;;10440810;28;20090;-62
2022/08/29 11:43:13;;;;;;;1.98;1.42;;;21.20;83.10;;;;;;10456373;28;20024;-62
2022/08/29 11:48:19;;;;;;;3.55;1.60;;;21.30;83.10;;;;;;10454050;28;20020;-62
2022/08/29 11:53:21;;;;;;;2.95;1.27;;;21.20;83.00;;;;;;10443125;28;20378;-62
2022/08/29 11:58:21;;;;;;;3.45;1.27;;;21.20;83.10;;;;;;10442484;28;20032;-63
2022/08/29 12:03:35;;;;;;;1.85;1.13;;;21.30;83.20;;;;;;10444658;28;20265;-62
2022/08/29 12:09:02;;;;;;;2.40;1.58;;;21.40;83.20;;;;;;10447794;28;20421;-62
2022/08/29 12:14:03;;;;;;;3.42;1.98;;;21.40;83.10;;;;;;10439925;28;20066;-62
2022/08/29 12:19:04;;;;;;;2.30;1.30;;;21.40;83.10;;;;;;10425580;28;20055;-62
2022/08/29 12:24:24;;;;;;;3.13;1.75;;;21.50;83.10;;;;;;10433302;28;20032;-62
2022/08/29 12:29:32;;;;;;;2.13;1.30;;;21.50;83.20;;;;;;10429188;28;20519;-62
2022/08/29 12:34:32;;;;;;;2.20;1.30;;;21.50;83.30;;;;;;10434437;28;20048;-62
2022/08/29 12:40:07;;;;;;;1.92;1.27;;;21.50;83.40;;;;;;10441244;28;20406;-62
2022/08/29 12:45:17;;;;;;;3.17;1.27;;;21.50;83.50;;;;;;10433830;28;20024;-62
2022/08/29 12:50:25;;;;;;;2.10;1.30;;;21.50;83.60;;;;;;10429118;28;20042;-62
2022/08/29 12:55:32;;;;;;;2.03;1.45;;;21.50;83.70;;;;;;10439773;28;20047;-62
2022/08/29 13:00:34;;;;;;;1.67;1.00;;;21.40;83.80;;;;;;10436494;28;20040;-62
2022/08/29 13:05:38;;;;;;;3.00;1.30;;;21.40;84.00;;;;;;10430733;28;20308;-62
2022/08/29 13:10:50;;;;;;;4.93;1.30;;;21.40;84.20;;;;;;10434024;28;20636;-62
2022/08/29 13:15:53;;;;;;;3.60;1.40;;;21.40;84.40;;;;;;10438140;28;20335;-62
2022/08/29 13:21:25;;;;;;;3.20;1.48;;;21.40;84.60;;;;;;10446180;28;20048;-62
2022/08/29 13:26:30;;;;;;;1.77;1.05;;;21.40;84.60;;;;;;10449117;28;20477;-62
2022/08/29 13:31:34;;;;;;;2.53;1.20;;;21.30;84.50;;;;;;10452077;28;20456;-62
2022/08/29 13:36:58;;;;;;;2.95;1.10;;;21.50;84.70;;;;;;10446057;28;20040;-62
2022/08/29 13:42:01;;;;;;;1.88;1.15;;;21.50;84.80;;;;;;10458584;28;20059;-62
2022/08/29 13:47:16;;;;;;;2.78;1.35;;;21.60;84.60;;;;;;10450569;28;20039;-62
2022/08/29 13:52:17;;;;;;;3.72;1.38;;;21.60;84.70;;;;;;10446233;28;20144;-61
2022/08/29 13:57:22;;;;;;;1.90;1.27;;;21.80;84.50;;;;;;10449904;28;20125;-61
2022/08/29 14:02:23;;;;;;;3.70;1.30;;;21.70;84.90;;;;;;10447719;28;20136;-62
2022/08/29 14:07:27;;;;;;;2.65;1.40;;;21.80;84.20;;;;;;10445066;28;20480;-62
2022/08/29 14:12:28;;;;;;;2.25;1.40;;;21.80;84.30;;;;;;10457299;28;20060;-62
2022/08/29 14:17:29;;;;;;;2.88;1.63;;;21.80;84.40;;;;;;10455308;28;20032;-62
2022/08/29 14:22:30;;;;;;;2.92;1.48;;;21.90;84.50;;;;;;10454334;28;20024;-63
2022/08/29 14:27:31;;;;;;;1.95;1.40;;;21.80;84.40;;;;;;10450920;28;20035;-62
2022/08/29 14:32:32;;;;;;;1.95;1.40;;;21.80;84.50;;;;;;10449160;28;20028;-62
2022/08/29 14:37:33;;;;;;;2.35;1.52;;;21.80;84.40;;;;;;10448190;28;20461;-62
2022/08/29 14:42:35;;;;;;;2.03;1.55;;;21.80;84.30;;;;;;10443742;28;20512;-62
2022/08/29 14:47:37;;;;;;;2.08;1.35;;;21.80;84.30;;;;;;10445645;28;20295;-62
2022/08/29 14:52:37;;;;;;;1.55;1.25;;;21.90;84.30;;;;;;10453958;28;20043;-62
2022/08/29 14:57:38;;;;;;;3.50;1.50;;;21.90;84.30;;;;;;10461524;28;20075;-62
2022/08/29 15:02:40;;;;;;;1.80;1.50;;;21.90;84.30;;;;;;10451670;28;20472;-62
2022/08/29 15:07:41;;;;;;;2.08;1.50;;;22.00;84.20;;;;;;10452085;28;20158;-63
2022/08/29 15:12:42;;;;;;;2.03;1.60;;;22.10;83.80;;;;;;10455770;28;20035;-62
2022/08/29 15:17:43;;;;;;;1.98;1.35;;;22.20;83.60;;;;;;10452066;28;20172;-62
2022/08/29 15:22:44;;;;;;;2.70;1.70;;;22.40;83.20;;;;;;10433036;28;20134;-62
2022/08/29 15:27:46;;;;;;;2.55;1.50;;;22.60;82.90;;;;;;10430416;28;20862;-62
2022/08/29 15:32:49;;;;;;;2.22;1.35;;;22.80;82.50;;;;;;10431885;28;20113;-62
2022/08/29 15:37:52;;;;;;;3.47;1.73;;;22.90;82.20;;;;;;10439688;28;20772;-62
2022/08/29 15:42:53;;;;;;;2.90;1.40;;;23.00;82.20;;;;;;10433862;28;20827;-61
2022/08/29 15:47:58;;;;;;;3.83;1.50;;;23.10;82.10;;;;;;10436768;28;20047;-61
2022/08/29 15:52:59;;;;;;;2.25;1.55;;;23.10;82.00;;;;;;10428773;28;20102;-61
2022/08/29 15:58:00;;;;;;;3.03;1.75;;;23.00;82.30;;;;;;10434391;28;20154;-61
2022/08/29 16:03:02;;;;;;;2.65;1.80;;;22.80;82.60;;;;;;10439613;28;20540;-61
2022/08/29 16:08:03;;;;;;;2.47;1.42;;;22.80;82.90;;;;;;10435369;28;20027;-62
2022/08/29 16:13:04;;;;;;;2.10;1.45;;;22.70;83.20;;;;;;10438948;28;20037;-61
2022/08/29 16:18:07;;;;;;;3.88;1.85;;;22.60;83.50;;;;;;10429761;28;20099;-62
2022/08/29 16:23:08;;;;;;;1.20;1.10;;;22.60;83.80;;;;;;10422873;28;20031;-62
2022/08/29 16:28:09;;;;;;;2.45;1.65;;;22.50;84.00;;;;;;10431211;28;20668;-62
2022/08/29 16:33:10;;;;;;;2.22;1.40;;;22.50;84.10;;;;;;10421522;28;20631;-61
2022/08/29 16:38:11;;;;;;;2.85;1.70;;;22.40;84.20;;;;;;10423628;28;20029;-62
2022/08/29 16:43:12;;;;;;;1.88;1.40;;;22.40;84.50;;;;;;10430326;28;20483;-61
2022/08/29 16:48:13;;;;;;;2.30;1.52;;;22.30;84.60;;;;;;10424157;28;20032;-62
2022/08/29 16:53:13;;;;;;;4.28;1.88;;;22.30;84.70;;;;;;10440699;28;20392;-62
2022/08/29 17:03:34;;;;;;;1.98;1.40;;;22.30;85.00;;;;;;10438255;28;20036;-62
2022/08/29 17:18:38;;;;;;;2.28;1.40;;;22.30;85.20;;;;;;10447224;28;20139;-62
2022/08/29 17:23:40;;;;;;;2.03;1.35;;;22.30;85.20;;;;;;10460396;28;20229;-62
2022/08/29 17:28:42;;;;;;;2.05;1.80;;;22.20;85.30;;;;;;10448837;28;20035;-62
2022/08/29 17:33:43;;;;;;;1.80;1.33;;;22.20;85.40;;;;;;10437357;28;20044;-62
2022/08/29 17:38:46;;;;;;;2.67;1.60;;;22.20;85.60;;;;;;10452806;28;20062;-62
2022/08/29 17:43:47;;;;;;;1.67;1.30;;;22.20;85.60;;;;;;10447824;28;20451;-62
2022/08/29 17:48:48;;;;;;;2.50;1.50;;;22.10;85.70;;;;;;10457888;28;20031;-62
2022/08/29 17:53:49;;;;;;;2.60;1.25;;;22.10;85.90;;;;;;10452336;28;20479;-62
2022/08/29 17:58:49;;;;;;;2.60;1.20;;;22.00;86.00;;;;;;10445935;28;20032;-62
2022/08/29 18:03:50;;;;;;;1.70;1.33;;;22.00;86.10;;;;;;10447313;28;20405;-63
2022/08/29 18:08:51;;;;;;;2.75;1.20;;;21.90;86.10;;;;;;10447237;28;20311;-62
2022/08/29 18:13:52;;;;;;;1.65;1.27;;;21.90;86.30;;;;;;10459709;28;20065;-62
2022/08/29 18:18:53;;;;;;;2.97;1.60;;;21.80;86.30;;;;;;10446545;28;20499;-62
2022/08/29 18:23:54;;;;;;;3.58;1.35;;;21.80;86.50;;;;;;10432323;28;20094;-62
2022/08/29 18:28:55;;;;;;;2.45;1.40;;;21.80;86.60;;;;;;10436234;28;20032;-62
2022/08/29 18:33:56;;;;;;;2.75;1.55;;;21.80;86.70;;;;;;10421024;28;20046;-62
2022/08/29 18:38:57;;;;;;;2.75;1.40;;;21.70;86.80;;;;;;10434859;28;20334;-62
2022/08/29 18:43:58;;;;;;;2.53;1.33;;;21.70;86.80;;;;;;10430215;28;20440;-62
2022/08/29 18:49:00;;;;;;;2.58;1.42;;;21.70;86.90;;;;;;10430829;28;20582;-62
2022/08/29 18:54:01;;;;;;;2.20;1.40;;;21.60;87.00;;;;;;10425520;28;20459;-62
2022/08/29 18:59:02;;;;;;;2.33;1.20;;;21.60;87.10;;;;;;10444568;28;20016;-62
2022/08/29 19:04:03;;;;;;;2.47;1.40;;;21.60;87.10;;;;;;10515998;28;20361;-62
2022/08/29 19:09:03;;;;;;;2.83;1.35;;;21.50;87.10;;;;;;10515621;28;20033;-62
2022/08/29 19:14:04;;;;;;;1.35;1.23;;;21.50;87.20;;;;;;10499236;28;20036;-62
2022/08/29 19:19:06;;;;;;;1.70;1.33;;;21.40;87.20;;;;;;10518482;28;20559;-62
2022/08/29 19:24:07;;;;;;;3.13;1.63;;;21.40;87.30;;;;;;10518148;28;20051;-62
2022/08/29 19:29:11;;;;;;;2.58;1.30;;;21.40;87.40;;;;;;10515911;28;20020;-62
2022/08/29 19:34:12;;;;;;;2.72;1.60;;;21.30;87.40;;;;;;10515479;28;20043;-62
2022/08/29 19:39:13;;;;;;;2.00;1.30;;;21.30;87.40;;;;;;10517311;28;20020;-62
2022/08/29 19:44:14;;;;;;;2.35;1.23;;;21.30;87.50;;;;;;10513854;28;20024;-62
2022/08/29 19:49:15;;;;;;;2.85;1.40;;;21.30;87.50;;;;;;10511177;28;20474;-61
2022/08/29 19:54:15;;;;;;;1.90;1.42;;;21.20;87.50;;;;;;10493993;28;20036;-62
2022/08/29 19:59:16;;;;;;;2.55;1.25;;;21.20;87.60;;;;;;10515851;28;20476;-62
2022/08/29 20:04:17;;;;;;;2.65;1.40;;;21.20;87.60;;;;;;10514064;28;20513;-62
2022/08/29 20:09:18;;;;;;;1.80;1.40;;;21.20;87.70;;;;;;10515246;28;20034;-62
2022/08/29 20:14:19;;;;;;;1.35;1.20;;;21.10;87.70;;;;;;10518284;28;20052;-62
2022/08/29 20:19:20;;;;;;;3.00;1.30;;;21.10;87.70;;;;;;10519183;28;20056;-62
2022/08/29 20:24:21;;;;;;;3.25;1.40;;;21.00;87.70;;;;;;10522153;28;21111;-61
2022/08/29 20:29:22;;;;;;;2.13;1.63;;;21.00;87.70;;;;;;10519275;28;20028;-62
2022/08/29 20:34:27;;;;;;;3.17;1.42;;;21.00;87.80;;;;;;10520613;28;20032;-62
2022/08/29 20:39:28;;;;;;;2.22;1.33;;;21.00;87.90;;;;;;10525472;28;20040;-62
2022/08/29 20:44:31;;;;;;;4.72;1.30;;;21.00;87.90;;;;;;10526807;28;20365;-62
2022/08/29 20:49:32;;;;;;;1.83;1.33;;;20.90;87.90;;;;;;10519772;28;20491;-61
2022/08/29 20:54:33;;;;;;;2.22;1.33;;;20.90;88.00;;;;;;10523138;28;20139;-61
2022/08/29 20:59:34;;;;;;;2.08;1.30;;;20.90;88.00;;;;;;10522175;28;20034;-62
2022/08/29 21:09:54;;;;;;;2.42;1.30;;;20.80;88.00;;;;;;10520698;28;20044;-62
2022/08/29 21:14:55;;;;;;;4.32;1.30;;;20.80;88.10;;;;;;10524021;28;20131;-61
2022/08/29 21:19:56;;;;;;;3.22;1.50;;;20.80;88.20;;;;;;10522989;28;20557;-62
2022/08/29 21:24:57;;;;;;;3.15;1.52;;;20.80;88.20;;;;;;10514067;28;20032;-61
2022/08/29 21:29:58;;;;;;;2.92;1.35;;;20.70;88.20;;;;;;10516648;28;20024;-62
2022/08/29 21:34:58;;;;;;;2.22;1.27;;;20.70;88.30;;;;;;10520404;28;20093;-62
2022/08/29 21:40:03;;;;;;;2.72;1.73;;;20.70;88.30;;;;;;10519512;28;20138;-62
2022/08/29 21:45:04;;;;;;;1.63;1.27;;;20.70;88.40;;;;;;10522047;28;20028;-62
2022/08/29 21:50:06;;;;;;;3.00;1.50;;;20.70;88.40;;;;;;10521628;28;20440;-62
2022/08/29 21:55:07;;;;;;;2.10;1.38;;;20.70;88.40;;;;;;10521351;28;20036;-62
2022/08/29 22:00:09;;;;;;;2.08;1.45;;;20.60;88.40;;;;;;10525315;28;20053;-62
2022/08/29 22:05:10;;;;;;;2.58;1.50;;;20.60;88.50;;;;;;10517903;28;20031;-62
2022/08/29 22:10:13;;;;;;;2.22;1.55;;;20.60;88.50;;;;;;10518153;28;20492;-62
2022/08/29 22:20:36;;;;;;;3.25;1.50;;;20.50;88.50;;;;;;10514839;28;20297;-62
2022/08/29 22:25:37;;;;;;;1.60;1.20;;;20.50;88.60;;;;;;10518318;28;20059;-61
2022/08/29 22:30:38;;;;;;;2.08;1.50;;;20.50;88.60;;;;;;10517647;28;20103;-62
2022/08/29 22:35:40;;;;;;;3.53;1.30;;;20.40;88.60;;;;;;10516748;28;20492;-62
2022/08/29 22:40:43;;;;;;;3.53;1.70;;;20.40;88.60;;;;;;10521673;28;20157;-62
2022/08/29 22:45:44;;;;;;;1.85;1.42;;;20.40;88.70;;;;;;10513069;28;20032;-62
2022/08/29 22:50:48;;;;;;;1.88;1.38;;;20.40;88.70;;;;;;10518081;28;20103;-62
2022/08/29 22:55:49;;;;;;;2.47;1.40;;;20.40;88.80;;;;;;10519859;28;20391;-62
2022/08/29 23:00:50;;;;;;;1.70;1.23;;;20.30;88.80;;;;;;10513448;28;20026;-62
2022/08/29 23:05:51;;;;;;;2.85;1.60;;;20.30;88.80;;;;;;10512659;28;20031;-62
2022/08/29 23:10:53;;;;;;;2.53;1.35;;;20.30;88.80;;;;;;10511847;28;20023;-61
2022/08/29 23:15:54;;;;;;;1.65;1.25;;;20.30;88.80;;;;;;10513538;28;20035;-61
2022/08/29 23:20:54;;;;;;;3.60;1.45;;;20.20;88.70;;;;;;10516222;28;20488;-61
2022/08/29 23:25:55;;;;;;;2.38;1.17;;;20.20;88.80;;;;;;10514585;28;20153;-62
2022/08/29 23:30:56;;;;;;;1.42;1.13;;;20.20;89.40;;;;;;10516169;28;20384;-62
2022/08/29 23:35:57;;;;;;;1.52;1.23;;;20.20;89.40;;;;;;10516199;28;20039;-62
2022/08/29 23:40:58;;;;;;;1.25;1.10;;;20.20;88.80;;;;;;10518830;28;20100;-62
2022/08/29 23:45:59;;;;;;;2.42;1.15;;;20.10;88.70;;;;;;10514675;28;20507;-62
2022/08/29 23:51:04;;;;;;;1.90;1.20;;;20.10;88.80;;;;;;10517501;28;20031;-61
2022/08/29 23:56:11;;;;;;;2.05;1.45;;;20.10;88.80;;;;;;10509971;28;20043;-62
